createdAt,value
2018-06-12T00:00:15.504Z,74.02
2018-06-12T00:02:44.466Z,74.06
2018-06-12T00:05:19.663Z,72.02
2018-06-12T00:07:48.623Z,71.78
2018-06-12T00:10:17.582Z,72.18
2018-06-12T00:12:46.566Z,71.78
2018-06-12T00:15:15.513Z,73.03
2018-06-12T00:17:44.470Z,75.35
2018-06-12T00:20:13.434Z,75.19
2018-06-12T00:22:42.436Z,74.43
2018-06-12T00:25:11.411Z,73.89
2018-06-12T00:27:40.390Z,73.55
2018-06-12T00:30:09.307Z,72.87
2018-06-12T00:32:38.334Z,72.02
2018-06-12T00:35:07.278Z,73.02
2018-06-12T00:37:36.254Z,73.86
2018-06-12T00:40:05.182Z,74.21
2018-06-12T00:42:34.240Z,73.56
2018-06-12T00:45:03.182Z,72.86
2018-06-12T00:47:32.154Z,73.59
2018-06-12T00:50:01.094Z,72.15
2018-06-12T00:52:30.094Z,73.03
2018-06-12T00:54:59.037Z,74.11
2018-06-12T00:57:28.043Z,73.77
2018-06-12T00:59:57.056Z,73.18
2018-06-12T01:02:25.991Z,72.27
2018-06-12T01:04:54.971Z,72.62
2018-06-12T01:07:23.924Z,73.39
2018-06-12T01:09:53.850Z,72.31
2018-06-12T01:12:22.820Z,71.08
2018-06-12T01:14:51.819Z,70.97
2018-06-12T01:17:21.058Z,71.53
2018-06-12T01:19:50.036Z,73.12
2018-06-12T01:22:18.993Z,72.21
2018-06-12T01:24:47.959Z,72.24
2018-06-12T01:27:16.859Z,72.24
2018-06-12T01:29:45.839Z,72.17
2018-06-12T01:32:14.770Z,71.55
2018-06-12T01:34:43.763Z,72.02
2018-06-12T01:37:12.704Z,71.61
2018-06-12T01:39:41.676Z,70.84
2018-06-12T01:42:10.623Z,71.52
2018-06-12T01:44:39.633Z,70.89
2018-06-12T01:47:08.574Z,70.19
2018-06-12T01:49:37.550Z,72.47
2018-06-12T01:52:06.538Z,70.85
2018-06-12T01:54:35.537Z,70.91
2018-06-12T01:57:04.494Z,69.99
2018-06-12T01:59:33.473Z,69.43
2018-06-12T02:02:02.439Z,69.46
2018-06-12T02:04:31.396Z,71.70
2018-06-12T02:07:00.314Z,72.80
2018-06-12T02:09:29.269Z,72.56
2018-06-12T02:11:58.202Z,72.27
2018-06-12T02:14:27.208Z,74.70
2018-06-12T02:16:56.155Z,74.46
2018-06-12T02:19:25.133Z,74.87
2018-06-12T02:21:54.085Z,76.09
2018-06-12T02:24:23.134Z,75.99
2018-06-12T02:26:52.078Z,75.73
2018-06-12T02:29:21.006Z,74.31
2018-06-12T02:31:50.061Z,76.84
2018-06-12T02:34:19.038Z,75.75
2018-06-12T02:36:48.055Z,75.26
2018-06-12T02:39:17.031Z,76.29
2018-06-12T02:41:46.051Z,74.81
2018-06-12T02:44:15.014Z,75.01
2018-06-12T02:46:44.050Z,75.32
2018-06-12T02:49:13.057Z,75.72
2018-06-12T02:51:42.084Z,75.39
2018-06-12T02:54:11.054Z,74.79
2018-06-12T02:56:40.063Z,75.04
2018-06-12T02:59:09.151Z,76.08
2018-06-12T03:01:38.174Z,76.22
2018-06-12T03:04:07.151Z,75.75
2018-06-12T03:06:36.153Z,76.09
2018-06-12T03:09:07.532Z,75.80
2018-06-12T03:11:36.559Z,74.59
2018-06-12T03:14:05.534Z,76.36
2018-06-12T03:16:34.564Z,74.79
2018-06-12T03:19:03.573Z,74.59
2018-06-12T03:21:32.605Z,74.74
2018-06-12T03:24:01.576Z,73.67
2018-06-12T03:26:37.063Z,74.19
2018-06-12T03:29:06.074Z,73.84
2018-06-12T03:31:35.229Z,74.50
2018-06-12T03:34:04.226Z,74.04
2018-06-12T03:36:33.248Z,73.01
2018-06-12T03:39:02.199Z,72.30
2018-06-12T03:41:31.227Z,72.56
2018-06-12T03:44:00.205Z,73.10
2018-06-12T03:46:29.218Z,74.14
2018-06-12T03:48:58.214Z,73.58
2018-06-12T03:51:27.277Z,74.15
2018-06-12T03:53:56.282Z,73.81
2018-06-12T03:56:25.309Z,72.97
2018-06-12T03:58:54.323Z,74.67
2018-06-12T04:01:23.353Z,74.04
2018-06-12T04:03:52.351Z,72.79
2018-06-12T04:06:21.313Z,72.39
2018-06-12T04:08:50.360Z,72.46
2018-06-12T04:11:19.331Z,73.39
2018-06-12T04:13:48.325Z,72.95
2018-06-12T04:16:17.301Z,73.07
2018-06-12T04:18:46.306Z,73.92
2018-06-12T04:21:15.260Z,74.05
2018-06-12T04:23:50.952Z,74.16
2018-06-12T04:26:19.942Z,73.36
2018-06-12T04:28:48.933Z,72.97
2018-06-12T04:31:17.895Z,73.15
2018-06-12T04:33:46.903Z,75.32
2018-06-12T04:36:15.878Z,74.57
2018-06-12T04:38:44.903Z,73.59
2018-06-12T04:41:13.877Z,73.19
2018-06-12T04:43:42.961Z,71.80
2018-06-12T04:46:11.926Z,73.61
2018-06-12T04:48:40.956Z,73.03
2018-06-12T04:51:09.922Z,73.10
2018-06-12T04:53:38.923Z,72.39
2018-06-12T04:56:07.953Z,73.97
2018-06-12T04:58:36.965Z,75.67
2018-06-12T05:01:05.957Z,75.27
2018-06-12T05:03:34.984Z,74.09
2018-06-12T05:06:03.982Z,72.47
2018-06-12T05:08:33.013Z,72.05
2018-06-12T05:11:01.996Z,71.68
2018-06-12T05:13:31.014Z,72.55
2018-06-12T05:15:59.961Z,73.22
2018-06-12T05:18:29.103Z,74.18
2018-06-12T05:20:58.086Z,72.71
2018-06-12T05:23:27.083Z,72.70
2018-06-12T05:25:56.090Z,72.46
2018-06-12T05:28:25.088Z,71.57
2018-06-12T05:30:54.089Z,70.18
2018-06-12T05:33:23.141Z,72.58
2018-06-12T05:35:52.245Z,72.22
2018-06-12T05:38:21.233Z,73.08
2018-06-12T05:40:50.257Z,73.25
2018-06-12T05:43:19.253Z,72.15
2018-06-12T05:45:48.294Z,74.38
2018-06-12T05:48:17.291Z,74.06
2018-06-12T05:50:46.488Z,74.12
2018-06-12T05:53:15.473Z,75.62
2018-06-12T05:55:44.585Z,76.23
2018-06-12T05:58:13.595Z,77.25
2018-06-12T06:00:42.579Z,74.92
2018-06-12T06:03:11.598Z,76.62
2018-06-12T06:05:40.646Z,75.57
2018-06-12T06:08:09.612Z,75.29
2018-06-12T06:10:38.691Z,74.68
2018-06-12T06:13:07.683Z,74.40
2018-06-12T06:15:36.786Z,73.09
2018-06-12T06:18:05.783Z,72.46
2018-06-12T06:20:34.823Z,73.11
2018-06-12T06:23:03.844Z,73.51
2018-06-12T06:25:32.851Z,74.03
2018-06-12T06:28:01.835Z,73.79
2018-06-12T06:30:30.862Z,75.14
2018-06-12T06:32:59.893Z,78.34
2018-06-12T06:35:28.915Z,79.13
2018-06-12T06:37:57.903Z,76.76
2018-06-12T06:40:26.971Z,74.93
2018-06-12T06:42:55.945Z,74.50
2018-06-12T06:45:25.050Z,74.71
2018-06-12T06:47:54.069Z,74.21
2018-06-12T06:50:23.039Z,73.56
2018-06-12T06:52:52.083Z,71.83
2018-06-12T06:55:21.047Z,71.09
2018-06-12T06:57:50.075Z,73.64
2018-06-12T07:00:19.084Z,71.28
2018-06-12T07:02:48.101Z,72.75
2018-06-12T07:05:17.121Z,73.10
2018-06-12T07:07:46.180Z,71.68
2018-06-12T07:10:15.186Z,71.49
2018-06-12T07:12:44.202Z,71.25
2018-06-12T07:15:13.178Z,70.06
2018-06-12T07:17:42.217Z,71.09
2018-06-12T07:20:11.190Z,69.51
2018-06-12T07:22:40.216Z,67.86
2018-06-12T07:25:09.173Z,68.83
2018-06-12T07:27:38.203Z,68.42
2018-06-12T07:30:07.206Z,69.45
2018-06-12T07:32:36.326Z,68.20
2018-06-12T07:35:05.376Z,68.19
2018-06-12T07:37:34.411Z,69.02
2018-06-12T07:40:03.462Z,68.81
2018-06-12T07:42:32.525Z,69.99
2018-06-12T07:45:01.517Z,71.28
2018-06-12T07:47:30.621Z,69.42
2018-06-12T07:49:59.575Z,65.97
2018-06-12T07:52:29.490Z,68.06
2018-06-12T07:54:58.550Z,67.48
2018-06-12T07:57:27.515Z,64.20
2018-06-12T07:59:56.576Z,70.02
2018-06-12T08:02:25.575Z,71.99
2018-06-12T08:04:54.623Z,68.60
2018-06-12T08:07:23.574Z,69.56
2018-06-12T08:09:52.579Z,70.84
2018-06-12T08:12:21.565Z,70.96
2018-06-12T08:14:50.588Z,70.85
2018-06-12T08:17:19.567Z,71.72
2018-06-12T08:19:48.588Z,72.12
2018-06-12T08:22:17.581Z,72.42
2018-06-12T08:24:46.599Z,69.97
2018-06-12T08:27:15.593Z,69.40
2018-06-12T08:29:44.774Z,67.66
2018-06-12T08:32:13.645Z,67.32
2018-06-12T08:34:42.688Z,67.54
2018-06-12T08:37:12.854Z,67.32
2018-06-12T08:39:41.863Z,69.00
2018-06-12T08:42:10.819Z,70.00
2018-06-12T08:44:39.825Z,69.20
2018-06-12T08:47:08.820Z,70.77
2018-06-12T08:49:37.835Z,71.27
2018-06-12T08:52:06.818Z,70.31
2018-06-12T08:54:35.818Z,69.24
2018-06-12T08:57:04.820Z,70.59
2018-06-12T08:59:33.807Z,69.51
2018-06-12T09:02:03.032Z,69.99
2018-06-12T09:04:32.050Z,68.84
2018-06-12T09:07:01.082Z,66.93
2018-06-12T09:09:30.124Z,69.45
2018-06-12T09:11:59.145Z,70.77
2018-06-12T09:14:28.175Z,69.47
2018-06-12T09:16:57.148Z,68.10
2018-06-12T09:19:26.154Z,68.27
2018-06-12T09:21:55.155Z,66.22
2018-06-12T09:24:24.203Z,68.83
2018-06-12T09:26:53.174Z,67.46
2018-06-12T09:29:22.142Z,68.72
2018-06-12T09:31:51.145Z,67.27
2018-06-12T09:34:20.102Z,67.52
2018-06-12T09:36:49.066Z,67.54
2018-06-12T09:39:18.049Z,68.09
2018-06-12T09:41:47.050Z,68.03
2018-06-12T09:44:16.033Z,68.14
2018-06-12T09:46:45.035Z,68.69
2018-06-12T09:49:14.136Z,68.77
2018-06-12T09:51:43.173Z,69.71
2018-06-12T09:54:12.143Z,68.25
2018-06-12T09:56:41.155Z,68.83
2018-06-12T09:59:10.122Z,66.75
2018-06-12T10:01:39.163Z,65.29
2018-06-12T10:04:08.167Z,66.09
2018-06-12T10:06:37.201Z,65.20
2018-06-12T10:09:08.067Z,66.69
2018-06-12T10:11:37.137Z,66.68
2018-06-12T10:14:06.102Z,69.23
2018-06-12T10:16:35.114Z,67.49
2018-06-12T10:19:04.110Z,67.25
2018-06-12T10:21:33.108Z,68.30
2018-06-12T10:24:02.066Z,67.61
2018-06-12T10:26:31.116Z,65.59
2018-06-12T10:29:00.043Z,66.03
2018-06-12T10:31:29.104Z,64.56
2018-06-12T10:33:58.074Z,64.66
2018-06-12T10:36:27.130Z,62.64
2018-06-12T10:38:56.092Z,64.82
2018-06-12T10:41:25.142Z,62.72
2018-06-12T10:43:54.100Z,64.21
2018-06-12T10:46:23.147Z,63.54
2018-06-12T10:48:52.105Z,65.26
2018-06-12T10:51:21.115Z,66.24
2018-06-12T10:53:50.083Z,66.00
2018-06-12T10:56:19.031Z,61.19
2018-06-12T10:58:48.050Z,66.52
2018-06-12T11:01:17.015Z,61.80
2018-06-12T11:03:46.012Z,62.21
2018-06-12T11:06:14.964Z,63.45
2018-06-12T11:08:43.973Z,60.76
2018-06-12T11:11:13.003Z,63.37
2018-06-12T11:13:42.081Z,59.20
2018-06-12T11:16:11.046Z,62.34
2018-06-12T11:18:40.072Z,65.14
2018-06-12T11:21:09.054Z,64.07
2018-06-12T11:23:38.092Z,62.28
2018-06-12T11:26:07.048Z,62.53
2018-06-12T11:28:36.070Z,65.41
2018-06-12T11:31:05.039Z,64.01
2018-06-12T11:33:34.381Z,67.00
2018-06-12T11:36:03.660Z,63.43
2018-06-12T11:38:32.987Z,63.73
2018-06-12T11:41:02.236Z,64.35
2018-06-12T11:43:31.255Z,59.87
2018-06-12T11:46:00.254Z,60.50
2018-06-12T11:48:29.265Z,57.66
2018-06-12T11:50:58.277Z,57.63
2018-06-12T11:53:27.260Z,59.73
2018-06-12T11:55:56.214Z,58.92
2018-06-12T11:58:25.193Z,57.30
2018-06-12T12:00:54.236Z,59.81
2018-06-12T12:03:23.486Z,57.73
2018-06-12T12:05:52.655Z,54.93
2018-06-12T12:08:22.347Z,58.81
2018-06-12T12:10:52.711Z,57.09
2018-06-12T12:13:21.904Z,61.00
2018-06-12T12:15:50.913Z,58.81
2018-06-12T12:18:20.891Z,56.85
2018-06-12T12:20:49.915Z,55.57
2018-06-12T12:23:18.930Z,56.80
2018-06-12T12:25:47.923Z,57.05
2018-06-12T12:28:16.898Z,55.33
2018-06-12T12:30:45.973Z,54.81
2018-06-12T12:33:15.012Z,57.03
2018-06-12T12:35:45.176Z,59.25
2018-06-12T12:38:14.187Z,59.07
2018-06-12T12:40:43.207Z,58.51
2018-06-12T12:43:12.163Z,59.18
2018-06-12T12:45:41.147Z,55.03
2018-06-12T12:48:10.122Z,54.70
2018-06-12T12:50:39.171Z,56.68
2018-06-12T12:53:08.150Z,55.48
2018-06-12T12:55:37.181Z,57.07
2018-06-12T12:58:06.300Z,54.28
2018-06-12T13:00:35.319Z,55.35
2018-06-12T13:03:04.309Z,56.13
2018-06-12T13:05:33.747Z,54.67
2018-06-12T13:08:02.845Z,56.99
2018-06-12T13:10:32.118Z,55.76
2018-06-12T13:13:01.919Z,51.55
2018-06-12T13:15:31.121Z,51.90
2018-06-12T13:18:00.256Z,51.78
2018-06-12T13:20:29.717Z,52.82
2018-06-12T13:22:58.941Z,51.70
2018-06-12T13:25:28.489Z,51.01
2018-06-12T13:27:57.757Z,52.67
2018-06-12T13:30:27.400Z,52.03
2018-06-12T13:32:56.590Z,53.78
2018-06-12T13:35:25.926Z,52.85
2018-06-12T13:37:55.140Z,50.94
2018-06-12T13:40:24.356Z,52.06
2018-06-12T13:42:53.429Z,53.03
2018-06-12T13:45:22.977Z,51.77
2018-06-12T13:47:52.695Z,49.82
2018-06-12T13:50:22.071Z,49.12
2018-06-12T13:52:51.207Z,51.71
2018-06-12T13:55:20.262Z,49.01
2018-06-12T13:57:49.491Z,51.23
2018-06-12T14:00:18.537Z,50.45
2018-06-12T14:02:47.622Z,50.42
2018-06-12T14:05:16.785Z,49.74
2018-06-12T14:07:46.199Z,49.63
2018-06-12T14:10:15.327Z,49.89
2018-06-12T14:12:45.073Z,50.46
2018-06-12T14:15:14.172Z,51.30
2018-06-12T14:17:43.559Z,50.69
2018-06-12T14:20:12.935Z,50.78
2018-06-12T14:22:42.752Z,50.53
2018-06-12T14:25:13.413Z,49.80
2018-06-12T14:27:43.002Z,49.06
2018-06-12T14:30:12.600Z,50.33
2018-06-12T14:32:41.795Z,52.16
2018-06-12T14:35:11.080Z,50.55
2018-06-12T14:37:40.600Z,51.11
2018-06-12T14:40:09.914Z,50.52
2018-06-12T14:42:39.199Z,49.33
2018-06-12T14:45:08.171Z,49.87
2018-06-12T14:47:37.222Z,48.87
2018-06-12T14:50:06.315Z,51.22
2018-06-12T14:52:36.416Z,48.89
2018-06-12T14:55:05.438Z,48.61
2018-06-12T14:57:34.584Z,48.43
2018-06-12T15:00:03.774Z,47.40
2018-06-12T15:02:32.852Z,46.27
2018-06-12T15:05:01.867Z,45.01
2018-06-12T15:07:31.748Z,48.19
2018-06-12T15:10:00.789Z,47.96
2018-06-12T15:12:29.887Z,47.09
2018-06-12T15:14:58.989Z,46.47
2018-06-12T15:17:28.007Z,45.25
2018-06-12T15:19:57.164Z,47.29
2018-06-12T15:22:26.133Z,46.64
2018-06-12T15:24:55.162Z,47.58
2018-06-12T15:27:24.187Z,45.77
2018-06-12T15:29:53.337Z,45.74
2018-06-12T15:32:22.390Z,46.20
2018-06-12T15:34:51.413Z,45.33
2018-06-12T15:37:20.390Z,46.21
2018-06-12T15:39:49.399Z,45.09
2018-06-12T15:42:18.374Z,44.88
2018-06-12T15:44:47.436Z,44.24
2018-06-12T15:47:16.429Z,46.18
2018-06-12T15:49:45.441Z,44.54
2018-06-12T15:52:14.406Z,44.60
2018-06-12T15:54:43.404Z,45.90
2018-06-12T15:57:12.346Z,46.17
2018-06-12T15:59:41.347Z,43.71
2018-06-12T16:02:10.318Z,44.72
2018-06-12T16:04:39.308Z,46.63
2018-06-12T16:07:08.300Z,45.93
2018-06-12T16:09:37.291Z,46.30
2018-06-12T16:12:06.253Z,44.46
2018-06-12T16:14:35.254Z,43.45
2018-06-12T16:17:04.223Z,43.58
2018-06-12T16:19:33.195Z,45.65
2018-06-12T16:22:02.393Z,45.73
2018-06-12T16:24:31.405Z,47.30
2018-06-12T16:27:00.390Z,45.64
2018-06-12T16:29:29.333Z,44.79
2018-06-12T16:31:58.354Z,46.09
2018-06-12T16:34:27.319Z,47.80
2018-06-12T16:36:56.311Z,47.63
2018-06-12T16:39:26.107Z,48.53
2018-06-12T16:41:55.106Z,47.98
2018-06-12T16:44:24.083Z,50.50
2018-06-12T16:46:53.157Z,49.94
2018-06-12T16:49:22.126Z,49.36
2018-06-12T16:51:51.134Z,49.56
2018-06-12T16:54:20.114Z,47.25
2018-06-12T16:56:49.096Z,49.69
2018-06-12T16:59:18.229Z,48.27
2018-06-12T17:01:47.254Z,48.46
2018-06-12T17:04:16.277Z,49.22
2018-06-12T17:06:45.362Z,47.89
2018-06-12T17:09:14.678Z,50.21
2018-06-12T17:11:44.152Z,50.34
2018-06-12T17:14:13.223Z,52.21
2018-06-12T17:16:42.688Z,50.37
2018-06-12T17:19:11.903Z,50.90
2018-06-12T17:21:40.971Z,49.89
2018-06-12T17:24:09.971Z,52.16
2018-06-12T17:26:39.043Z,52.09
2018-06-12T17:29:08.032Z,51.09
2018-06-12T17:31:37.043Z,51.01
2018-06-12T17:34:06.203Z,50.66
2018-06-12T17:36:35.414Z,49.35
2018-06-12T17:39:05.984Z,52.24
2018-06-12T17:41:35.027Z,51.26
2018-06-12T17:44:04.018Z,52.19
2018-06-12T17:46:33.107Z,51.34
2018-06-12T17:49:02.343Z,51.42
2018-06-12T17:51:31.445Z,53.03
2018-06-12T17:54:00.465Z,53.20
2018-06-12T17:56:29.885Z,53.67
2018-06-12T17:58:58.892Z,52.71
2018-06-12T18:01:27.926Z,52.82
2018-06-12T18:03:57.182Z,52.26
2018-06-12T18:06:26.621Z,51.62
2018-06-12T18:08:55.582Z,52.79
2018-06-12T18:11:24.563Z,54.85
2018-06-12T18:13:53.610Z,53.59
2018-06-12T18:16:22.587Z,54.36
2018-06-12T18:18:51.566Z,56.21
2018-06-12T18:21:20.556Z,56.42
2018-06-12T18:23:49.580Z,55.58
2018-06-12T18:26:18.545Z,53.85
2018-06-12T18:28:47.544Z,56.06
2018-06-12T18:31:16.661Z,55.20
2018-06-12T18:33:46.340Z,57.63
2018-06-12T18:36:15.328Z,57.14
2018-06-12T18:38:44.362Z,57.31
2018-06-12T18:41:13.384Z,54.56
2018-06-12T18:43:42.459Z,53.90
2018-06-12T18:46:11.432Z,53.71
2018-06-12T18:48:40.485Z,53.97
2018-06-12T18:51:09.473Z,53.78
2018-06-12T18:53:38.608Z,54.33
2018-06-12T18:56:07.606Z,55.28
2018-06-12T18:58:36.688Z,54.57
2018-06-12T19:01:05.662Z,54.97
2018-06-12T19:03:34.733Z,54.10
2018-06-12T19:06:03.879Z,54.12
2018-06-12T19:08:33.070Z,54.54
2018-06-12T19:11:02.315Z,55.12
2018-06-12T19:13:31.512Z,54.91
2018-06-12T19:16:00.504Z,55.73
2018-06-12T19:18:29.553Z,56.30
2018-06-12T19:20:58.665Z,55.49
2018-06-12T19:23:27.695Z,56.34
2018-06-12T19:25:56.738Z,56.23
2018-06-12T19:28:25.984Z,56.94
2018-06-12T19:30:55.031Z,58.11
2018-06-12T19:33:24.114Z,58.04
2018-06-12T19:35:53.123Z,59.05
2018-06-12T19:38:22.143Z,61.47
2018-06-12T19:40:51.191Z,59.92
2018-06-12T19:43:20.293Z,59.84
2018-06-12T19:45:49.434Z,60.23
2018-06-12T19:48:18.514Z,59.90
2018-06-12T19:50:47.701Z,59.87
2018-06-12T19:53:16.693Z,59.46
2018-06-12T19:55:45.715Z,59.54
2018-06-12T19:58:14.707Z,59.16
2018-06-12T20:00:43.929Z,58.82
2018-06-12T20:03:13.295Z,58.98
2018-06-12T20:05:42.407Z,58.41
2018-06-12T20:08:11.555Z,59.68
2018-06-12T20:10:40.699Z,59.20
2018-06-12T20:13:09.778Z,59.71
2018-06-12T20:15:38.886Z,60.36
2018-06-12T20:18:08.003Z,59.02
2018-06-12T20:20:37.030Z,60.77
2018-06-12T20:23:06.134Z,60.27
2018-06-12T20:25:35.518Z,60.27
2018-06-12T20:28:04.635Z,61.07
2018-06-12T20:30:33.649Z,59.89
2018-06-12T20:33:02.669Z,60.54
2018-06-12T20:35:31.756Z,60.13
2018-06-12T20:38:00.782Z,60.73
2018-06-12T20:40:29.813Z,60.79
2018-06-12T20:42:58.818Z,60.45
2018-06-12T20:45:27.897Z,60.06
2018-06-12T20:47:56.924Z,60.06
2018-06-12T20:50:26.115Z,60.95
2018-06-12T20:52:55.213Z,60.40
2018-06-12T20:55:24.282Z,60.33
2018-06-12T20:57:53.673Z,60.44
2018-06-12T21:00:23.571Z,59.49
2018-06-12T21:02:52.770Z,60.44
2018-06-12T21:05:21.985Z,60.44
2018-06-12T21:07:50.974Z,59.44
2018-06-12T21:10:20.052Z,59.42
2018-06-12T21:12:50.423Z,59.62
2018-06-12T21:15:19.462Z,58.57
2018-06-12T21:17:48.546Z,59.14
2018-06-12T21:20:17.531Z,59.43
2018-06-12T21:22:46.518Z,59.11
2018-06-12T21:25:15.619Z,59.26
2018-06-12T21:27:44.617Z,58.82
2018-06-12T21:30:13.782Z,58.60
2018-06-12T21:32:42.979Z,58.48
2018-06-12T21:35:12.057Z,59.03
2018-06-12T21:37:41.139Z,58.61
2018-06-12T21:40:10.250Z,58.44
2018-06-12T21:42:39.314Z,57.68
2018-06-12T21:45:08.328Z,57.96
2018-06-12T21:47:37.346Z,56.42
2018-06-12T21:50:06.438Z,56.35
2018-06-12T21:52:35.454Z,55.86
2018-06-12T21:55:04.676Z,55.28
2018-06-12T21:57:33.672Z,56.61
2018-06-12T22:00:02.818Z,56.31
2018-06-12T22:02:31.955Z,56.98
2018-06-12T22:05:01.033Z,56.14
2018-06-12T22:07:30.197Z,56.00
2018-06-12T22:09:59.354Z,54.88
2018-06-12T22:12:28.440Z,57.02
2018-06-12T22:14:57.394Z,56.28
2018-06-12T22:17:26.408Z,55.07
2018-06-12T22:19:55.386Z,54.89
2018-06-12T22:22:24.443Z,55.23
2018-06-12T22:24:53.412Z,55.16
2018-06-12T22:27:22.423Z,54.96
2018-06-12T22:29:51.412Z,54.81
2018-06-12T22:32:20.432Z,53.98
2018-06-12T22:34:49.459Z,53.74
2018-06-12T22:37:18.463Z,53.90
2018-06-12T22:39:47.430Z,55.00
2018-06-12T22:42:16.476Z,54.92
2018-06-12T22:44:45.474Z,54.49
2018-06-12T22:47:14.499Z,54.90
2018-06-12T22:49:43.522Z,55.04
2018-06-12T22:52:12.530Z,55.20
2018-06-12T22:54:41.544Z,54.50
2018-06-12T22:57:10.595Z,55.38
2018-06-12T22:59:39.596Z,55.47
2018-06-12T23:02:08.591Z,56.64
2018-06-12T23:04:37.583Z,56.74
2018-06-12T23:07:06.631Z,55.88
2018-06-12T23:09:35.613Z,55.25
2018-06-12T23:12:04.623Z,53.87
2018-06-12T23:14:33.614Z,53.78
2018-06-12T23:17:02.663Z,54.83
2018-06-12T23:19:31.609Z,54.45
2018-06-12T23:22:01.608Z,54.76
2018-06-12T23:24:30.628Z,54.27
2018-06-12T23:26:59.634Z,54.66
2018-06-12T23:29:28.624Z,53.87
2018-06-12T23:31:57.600Z,54.57
2018-06-12T23:34:26.627Z,51.94
2018-06-12T23:36:55.625Z,53.13
2018-06-12T23:39:24.709Z,53.51
2018-06-12T23:41:53.638Z,53.50
2018-06-12T23:44:22.657Z,54.21
2018-06-12T23:46:51.638Z,54.26
2018-06-12T23:49:20.673Z,53.09
2018-06-12T23:51:49.653Z,54.57
2018-06-12T23:54:18.668Z,54.63
2018-06-12T23:56:47.630Z,54.31
2018-06-12T23:59:16.646Z,54.39
